createdAt,value
2023-03-04T00:02:24.674Z,1.50
2023-03-04T00:04:53.022Z,1.47
2023-03-04T00:07:21.188Z,1.46
2023-03-04T00:09:53.720Z,1.43
2023-03-04T00:12:22.865Z,1.42
2023-03-04T00:14:51.639Z,1.40
2023-03-04T00:17:25.572Z,1.39
2023-03-04T00:19:55.267Z,1.37
2023-03-04T00:22:24.117Z,1.35
2023-03-04T00:24:54.961Z,1.33
2023-03-04T00:27:23.945Z,1.30
2023-03-04T00:29:52.191Z,1.28
2023-03-04T00:32:21.241Z,1.26
2023-03-04T00:34:49.828Z,1.26
2023-03-04T00:37:17.997Z,1.25
2023-03-04T00:39:46.853Z,1.25
2023-03-04T00:42:16.815Z,1.26
2023-03-04T00:44:46.605Z,1.25
2023-03-04T00:47:14.962Z,1.25
2023-03-04T00:49:43.436Z,1.23
2023-03-04T00:52:11.680Z,1.21
2023-03-04T00:54:43.033Z,1.19
2023-03-04T00:57:11.373Z,1.16
2023-03-04T00:59:40.897Z,1.14
2023-03-04T01:02:11.427Z,1.14
2023-03-04T01:04:42.047Z,1.13
2023-03-04T01:07:11.454Z,1.13
2023-03-04T01:09:45.436Z,1.13
2023-03-04T01:12:14.256Z,1.13
2023-03-04T01:14:43.151Z,1.13
2023-03-04T01:17:17.559Z,1.13
2023-03-04T01:19:45.873Z,1.13
2023-03-04T01:22:16.786Z,1.13
2023-03-04T01:24:47.248Z,1.12
2023-03-04T01:27:16.106Z,1.10
2023-03-04T01:29:45.414Z,1.09
2023-03-04T01:32:13.681Z,1.07
2023-03-04T01:34:43.966Z,1.06
2023-03-04T01:37:15.904Z,1.04
2023-03-04T01:39:44.963Z,1.04
2023-03-04T01:42:19.098Z,1.02
2023-03-04T01:44:48.402Z,1.01
2023-03-04T01:47:19.166Z,0.99
2023-03-04T01:49:49.455Z,0.96
2023-03-04T01:52:18.211Z,0.94
2023-03-04T01:54:46.413Z,0.93
2023-03-04T01:57:23.086Z,0.92
2023-03-04T02:00:32.455Z,0.90
2023-03-04T02:03:07.314Z,0.90
2023-03-04T02:05:36.472Z,0.89
2023-03-04T02:08:05.341Z,0.88
2023-03-04T02:10:37.994Z,0.87
2023-03-04T02:13:07.068Z,0.82
2023-03-04T02:15:35.726Z,0.75
2023-03-04T02:18:18.809Z,0.71
2023-03-04T02:21:13.733Z,0.69
2023-03-04T02:23:49.501Z,0.69
2023-03-04T02:26:21.870Z,0.64
2023-03-04T02:28:52.976Z,0.57
2023-03-04T02:31:28.849Z,0.51
2023-03-04T02:33:58.919Z,0.46
2023-03-04T02:36:29.044Z,0.39
2023-03-04T02:39:03.466Z,0.32
2023-03-04T02:41:32.306Z,0.28
2023-03-04T02:44:02.228Z,0.21
2023-03-04T02:46:31.394Z,0.18
2023-03-04T02:49:00.152Z,0.17
2023-03-04T02:51:29.738Z,0.17
2023-03-04T02:53:58.398Z,0.17
2023-03-04T02:56:26.928Z,0.17
2023-03-04T02:58:55.316Z,0.16
2023-03-04T03:01:29.893Z,0.15
2023-03-04T03:03:58.220Z,0.14
2023-03-04T03:06:27.125Z,0.13
2023-03-04T03:08:57.268Z,0.13
2023-03-04T03:11:26.784Z,0.12
2023-03-04T03:13:56.161Z,0.12
2023-03-04T03:16:30.593Z,0.13
2023-03-04T03:18:58.817Z,0.14
2023-03-04T03:21:27.041Z,0.14
2023-03-04T03:23:55.376Z,0.15
2023-03-04T03:26:23.598Z,0.15
2023-03-04T03:28:54.353Z,0.15
2023-03-04T03:31:23.380Z,0.15
2023-03-04T03:33:59.400Z,0.17
2023-03-04T03:36:28.692Z,0.18
2023-03-04T03:38:56.962Z,0.20
2023-03-04T03:41:25.203Z,0.22
2023-03-04T03:43:53.410Z,0.22
2023-03-04T03:46:21.670Z,0.23
2023-03-04T03:48:50.161Z,0.23
2023-03-04T03:51:26.530Z,0.23
2023-03-04T03:53:55.512Z,0.24
2023-03-04T03:56:23.911Z,0.25
2023-03-04T03:58:52.077Z,0.26
2023-03-04T04:01:20.306Z,0.29
2023-03-04T04:03:48.922Z,0.29
2023-03-04T04:06:17.454Z,0.31
2023-03-04T04:08:51.120Z,0.31
2023-03-04T04:11:19.279Z,0.32
2023-03-04T04:13:47.496Z,0.34
2023-03-04T04:16:16.447Z,0.35
2023-03-04T04:18:45.091Z,0.35
2023-03-04T04:21:17.576Z,0.36
2023-03-04T04:23:46.266Z,0.39
2023-03-04T04:26:19.157Z,0.40
2023-03-04T04:28:48.391Z,0.41
2023-03-04T04:31:16.888Z,0.41
2023-03-04T04:33:46.747Z,0.44
2023-03-04T04:36:15.541Z,0.46
2023-03-04T04:38:49.673Z,0.47
2023-03-04T04:41:23.154Z,0.50
2023-03-04T04:43:51.245Z,0.51
2023-03-04T04:46:20.148Z,0.52
2023-03-04T04:48:48.337Z,0.51
2023-03-04T04:51:16.568Z,0.51
2023-03-04T04:53:44.993Z,0.54
2023-03-04T04:56:16.674Z,0.57
2023-03-04T04:58:45.511Z,0.60
2023-03-04T05:01:14.416Z,0.62
2023-03-04T05:03:44.894Z,0.64
2023-03-04T05:06:13.463Z,0.66
2023-03-04T05:08:41.693Z,0.67
2023-03-04T05:11:10.068Z,0.67
2023-03-04T05:13:40.284Z,0.69
2023-03-04T05:16:09.768Z,0.71
2023-03-04T05:18:38.123Z,0.72
2023-03-04T05:21:10.007Z,0.73
2023-03-04T05:23:40.127Z,0.74
2023-03-04T05:26:08.951Z,0.75
2023-03-04T05:28:37.387Z,0.76
2023-03-04T05:31:05.827Z,0.77
2023-03-04T05:33:35.231Z,0.81
2023-03-04T05:36:04.776Z,0.82
2023-03-04T05:38:32.998Z,0.83
2023-03-04T05:41:03.519Z,0.85
2023-03-04T05:43:38.475Z,0.86
2023-03-04T05:46:07.096Z,0.89
2023-03-04T05:48:35.289Z,0.90
2023-03-04T05:51:03.861Z,0.91
2023-03-04T05:53:32.525Z,0.94
2023-03-04T05:56:06.436Z,0.98
2023-03-04T05:58:35.150Z,1.02
2023-03-04T06:01:03.707Z,1.05
2023-03-04T06:03:32.144Z,1.07
2023-03-04T06:06:00.296Z,1.08
2023-03-04T06:08:29.882Z,1.10
2023-03-04T06:10:59.220Z,1.11
2023-03-04T06:13:34.032Z,1.15
2023-03-04T06:16:03.507Z,1.20
2023-03-04T06:18:33.783Z,1.23
2023-03-04T06:21:08.663Z,1.27
2023-03-04T06:23:37.869Z,1.30
2023-03-04T06:26:09.442Z,1.32
2023-03-04T06:28:38.723Z,1.35
2023-03-04T06:31:06.952Z,1.38
2023-03-04T06:33:35.582Z,1.41
2023-03-04T06:36:04.780Z,1.46
2023-03-04T06:38:32.990Z,1.50
2023-03-04T06:41:09.068Z,1.55
2023-03-04T06:43:37.645Z,1.60
2023-03-04T06:46:07.367Z,1.65
2023-03-04T06:48:36.641Z,1.69
2023-03-04T06:51:09.350Z,1.72
2023-03-04T06:53:39.626Z,1.74
2023-03-04T06:56:16.467Z,1.76
2023-03-04T06:58:46.259Z,1.80
2023-03-04T07:01:21.810Z,1.83
2023-03-04T07:03:50.460Z,1.87
2023-03-04T07:06:20.931Z,1.90
2023-03-04T07:08:55.938Z,1.92
2023-03-04T07:11:25.467Z,1.93
2023-03-04T07:13:53.759Z,1.98
2023-03-04T07:16:23.315Z,2.04
2023-03-04T07:18:51.984Z,2.11
2023-03-04T07:21:26.024Z,2.19
2023-03-04T07:23:54.197Z,2.27
2023-03-04T07:26:22.462Z,2.36
2023-03-04T07:28:53.060Z,2.44
2023-03-04T07:31:21.448Z,2.51
2023-03-04T07:33:50.996Z,2.59
2023-03-04T07:36:20.146Z,2.68
2023-03-04T07:38:49.333Z,2.75
2023-03-04T07:41:18.225Z,2.80
2023-03-04T07:43:46.906Z,2.83
2023-03-04T07:46:15.252Z,2.86
2023-03-04T07:48:43.887Z,2.91
2023-03-04T07:51:15.162Z,2.96
2023-03-04T07:53:46.401Z,3.01
2023-03-04T07:56:16.781Z,3.08
2023-03-04T07:58:45.481Z,3.15
2023-03-04T08:01:16.000Z,3.21
2023-03-04T08:03:44.553Z,3.27
2023-03-04T08:06:14.537Z,3.34
2023-03-04T08:08:48.169Z,3.40
2023-03-04T08:11:20.992Z,3.46
2023-03-04T08:13:49.397Z,3.51
2023-03-04T08:16:19.133Z,3.58
2023-03-04T08:18:49.862Z,3.67
2023-03-04T08:21:19.569Z,3.79
2023-03-04T08:23:49.398Z,3.92
2023-03-04T08:26:20.723Z,4.03
2023-03-04T08:28:49.410Z,4.12
2023-03-04T08:31:19.998Z,4.19
2023-03-04T08:33:49.733Z,4.23
2023-03-04T08:36:17.950Z,4.26
2023-03-04T08:38:47.166Z,4.28
2023-03-04T08:41:16.975Z,4.28
2023-03-04T08:43:45.181Z,4.24
2023-03-04T08:46:13.425Z,4.19
2023-03-04T08:48:42.189Z,4.16
2023-03-04T08:51:13.328Z,4.14
2023-03-04T08:53:41.753Z,4.13
2023-03-04T08:56:10.593Z,4.10
2023-03-04T08:58:39.122Z,4.08
2023-03-04T09:01:10.031Z,4.08
2023-03-04T09:03:46.090Z,4.09
2023-03-04T09:06:15.818Z,4.11
2023-03-04T09:09:09.675Z,4.14
2023-03-04T09:11:41.981Z,4.18
2023-03-04T09:14:11.275Z,4.22
2023-03-04T09:16:40.068Z,4.24
2023-03-04T09:19:08.356Z,4.23
2023-03-04T09:21:38.417Z,4.22
2023-03-04T09:24:07.068Z,4.23
2023-03-04T09:26:35.494Z,4.28
2023-03-04T09:29:04.257Z,4.32
2023-03-04T09:31:34.274Z,4.38
2023-03-04T09:34:04.105Z,4.42
2023-03-04T09:36:33.365Z,4.45
2023-03-04T09:39:07.307Z,4.47
2023-03-04T09:41:50.409Z,4.46
2023-03-04T09:44:38.514Z,4.43
2023-03-04T09:47:11.678Z,4.38
2023-03-04T09:49:41.515Z,4.34
2023-03-04T09:52:28.169Z,4.31
2023-03-04T09:55:18.609Z,4.28
2023-03-04T09:57:53.364Z,4.27
2023-03-04T10:00:25.439Z,4.25
2023-03-04T10:03:06.327Z,4.25
2023-03-04T10:05:36.704Z,4.24
2023-03-04T10:08:28.582Z,4.24
2023-03-04T10:10:59.232Z,4.26
2023-03-04T10:13:40.823Z,4.25
2023-03-04T10:16:10.004Z,4.22
2023-03-04T10:18:41.360Z,4.18
2023-03-04T10:21:42.344Z,4.13
2023-03-04T10:24:15.325Z,4.08
2023-03-04T10:26:50.674Z,4.04
2023-03-04T10:29:21.225Z,3.99
2023-03-04T10:31:50.090Z,3.96
2023-03-04T10:34:18.961Z,3.92
2023-03-04T10:36:54.950Z,3.89
2023-03-04T10:39:39.657Z,3.85
2023-03-04T10:42:14.572Z,3.81
2023-03-04T10:44:56.959Z,3.79
2023-03-04T10:47:29.417Z,3.77
2023-03-04T10:50:00.971Z,3.77
2023-03-04T10:52:38.840Z,3.77
2023-03-04T10:55:17.160Z,3.74
2023-03-04T10:57:48.680Z,3.72
2023-03-04T11:00:32.233Z,3.70
2023-03-04T11:03:36.180Z,3.69
2023-03-04T11:06:24.646Z,3.66
2023-03-04T11:08:58.435Z,3.65
2023-03-04T11:11:48.411Z,3.62
2023-03-04T11:14:24.647Z,3.59
2023-03-04T11:17:01.061Z,3.59
2023-03-04T11:19:38.672Z,3.64
2023-03-04T11:22:07.691Z,3.74
2023-03-04T11:24:36.401Z,3.87
2023-03-04T11:27:50.518Z,4.02
2023-03-04T11:30:48.397Z,4.21
2023-03-04T11:33:29.535Z,4.39
2023-03-04T11:36:10.169Z,4.49
2023-03-04T11:38:47.985Z,4.57
2023-03-04T11:41:39.907Z,4.62
2023-03-04T11:44:09.025Z,4.68
2023-03-04T11:46:52.799Z,4.74
2023-03-04T11:50:00.553Z,4.76
2023-03-04T11:52:51.640Z,4.74
2023-03-04T11:55:22.604Z,4.71
2023-03-04T11:57:59.278Z,4.68
2023-03-04T12:00:36.091Z,4.67
2023-03-04T12:03:42.485Z,4.66
2023-03-04T12:06:38.948Z,4.69
2023-03-04T12:09:31.697Z,4.71
2023-03-04T12:12:06.255Z,4.78
2023-03-04T12:14:59.206Z,4.83
2023-03-04T12:17:39.574Z,4.86
2023-03-04T12:20:40.200Z,4.86
2023-03-04T12:23:22.469Z,4.88
2023-03-04T12:25:59.616Z,4.88
2023-03-04T12:28:53.149Z,4.86
2023-03-04T12:31:24.418Z,4.84
2023-03-04T12:34:14.450Z,4.82
2023-03-04T12:37:17.886Z,4.79
2023-03-04T12:40:20.638Z,4.73
2023-03-04T12:43:04.143Z,4.67
2023-03-04T12:45:43.893Z,4.65
2023-03-04T12:49:02.184Z,4.63
2023-03-04T12:51:39.604Z,4.57
2023-03-04T12:54:24.142Z,4.49
2023-03-04T12:56:55.868Z,4.42
2023-03-04T12:59:24.293Z,4.39
2023-03-04T13:02:14.548Z,4.36
2023-03-04T13:05:04.928Z,4.32
2023-03-04T13:07:50.859Z,4.29
2023-03-04T13:10:23.580Z,4.24
2023-03-04T13:12:54.537Z,4.23
2023-03-04T13:15:43.303Z,4.24
2023-03-04T13:18:36.063Z,4.27
2023-03-04T13:21:11.909Z,4.28
2023-03-04T13:23:40.821Z,4.28
2023-03-04T13:26:32.218Z,4.26
2023-03-04T13:29:18.963Z,4.26
2023-03-04T13:32:00.809Z,4.25
2023-03-04T13:34:49.251Z,4.24
2023-03-04T13:37:35.084Z,4.20
2023-03-04T13:40:47.674Z,4.17
2023-03-04T13:43:28.363Z,4.10
2023-03-04T13:45:56.699Z,4.06
2023-03-04T13:48:36.505Z,4.03
2023-03-04T13:51:04.852Z,4.00
2023-03-04T13:53:44.810Z,3.96
2023-03-04T13:56:29.320Z,3.91
2023-03-04T13:59:19.319Z,3.88
2023-03-04T14:01:47.994Z,3.85
2023-03-04T14:04:22.790Z,3.82
2023-03-04T14:06:52.715Z,3.80
2023-03-04T14:09:27.332Z,3.80
2023-03-04T14:11:57.314Z,3.80
2023-03-04T14:14:31.430Z,3.78
2023-03-04T14:17:05.096Z,3.75
2023-03-04T14:19:38.608Z,3.71
2023-03-04T14:22:23.895Z,3.67
2023-03-04T14:25:23.128Z,3.63
2023-03-04T14:28:04.558Z,3.59
2023-03-04T14:30:42.846Z,3.56
2023-03-04T14:33:18.342Z,3.53
2023-03-04T14:35:49.705Z,3.51
2023-03-04T14:38:23.929Z,3.47
2023-03-04T14:40:56.983Z,3.44
2023-03-04T14:43:26.565Z,3.41
2023-03-04T14:45:56.524Z,3.39
2023-03-04T14:48:31.022Z,3.37
2023-03-04T14:51:30.271Z,3.36
2023-03-04T14:54:32.140Z,3.36
2023-03-04T14:57:21.674Z,3.35
2023-03-04T14:59:50.175Z,3.34
2023-03-04T15:02:35.338Z,3.32
2023-03-04T15:05:31.389Z,3.30
2023-03-04T15:08:07.029Z,3.28
2023-03-04T15:10:37.171Z,3.26
2023-03-04T15:13:07.573Z,3.25
2023-03-04T15:15:40.648Z,3.25
2023-03-04T15:18:21.220Z,3.24
2023-03-04T15:21:05.881Z,3.23
2023-03-04T15:23:34.151Z,3.23
2023-03-04T15:26:04.710Z,3.21
2023-03-04T15:28:37.775Z,3.20
2023-03-04T15:31:06.140Z,3.19
2023-03-04T15:33:39.316Z,3.18
2023-03-04T15:36:11.133Z,3.16
2023-03-04T15:38:48.714Z,3.15
2023-03-04T15:41:25.891Z,3.13
2023-03-04T15:43:54.866Z,3.11
2023-03-04T15:46:23.473Z,3.08
2023-03-04T15:48:52.723Z,3.06
2023-03-04T15:51:22.385Z,3.06
2023-03-04T15:53:55.968Z,3.05
2023-03-04T15:56:32.104Z,3.04
2023-03-04T15:59:14.943Z,3.03
2023-03-04T16:01:51.157Z,3.02
2023-03-04T16:04:20.398Z,3.00
2023-03-04T16:06:49.587Z,2.99
2023-03-04T16:09:20.092Z,2.98
2023-03-04T16:11:49.058Z,2.97
2023-03-04T16:14:19.084Z,2.97
2023-03-04T16:16:48.143Z,2.96
2023-03-04T16:19:19.941Z,2.95
2023-03-04T16:21:50.971Z,2.94
2023-03-04T16:24:25.062Z,2.93
2023-03-04T16:26:54.214Z,2.92
2023-03-04T16:29:24.420Z,2.91
2023-03-04T16:31:54.401Z,2.90
2023-03-04T16:34:22.860Z,2.90
2023-03-04T16:36:51.551Z,2.90
2023-03-04T16:39:25.915Z,2.90
2023-03-04T16:41:58.483Z,2.89
2023-03-04T16:44:27.274Z,2.87
2023-03-04T16:47:02.772Z,2.85
2023-03-04T16:49:32.337Z,2.83
2023-03-04T16:52:01.006Z,2.82
2023-03-04T16:54:31.961Z,2.82
2023-03-04T16:57:00.882Z,2.80
2023-03-04T16:59:29.970Z,2.80
2023-03-04T17:01:58.631Z,2.79
2023-03-04T17:04:29.401Z,2.77
2023-03-04T17:06:59.082Z,2.76
2023-03-04T17:09:27.676Z,2.74
2023-03-04T17:11:59.555Z,2.74
2023-03-04T17:14:31.039Z,2.74
2023-03-04T17:17:00.673Z,2.74
2023-03-04T17:19:29.847Z,2.74
2023-03-04T17:21:59.489Z,2.72
2023-03-04T17:24:28.005Z,2.73
2023-03-04T17:26:58.339Z,2.73
2023-03-04T17:29:26.734Z,2.72
2023-03-04T17:31:54.966Z,2.71
2023-03-04T17:34:23.230Z,2.71
2023-03-04T17:36:51.573Z,2.71
2023-03-04T17:39:20.021Z,2.71
2023-03-04T17:41:51.366Z,2.71
2023-03-04T17:44:24.778Z,2.70
2023-03-04T17:46:53.105Z,2.69
2023-03-04T17:49:21.693Z,2.67
2023-03-04T17:51:50.135Z,2.66
2023-03-04T17:54:18.647Z,2.65
2023-03-04T17:56:47.015Z,2.65
2023-03-04T17:59:16.130Z,2.65
2023-03-04T18:01:47.813Z,2.64
2023-03-04T18:04:16.874Z,2.63
2023-03-04T18:06:46.497Z,2.61
2023-03-04T18:09:14.669Z,2.60
2023-03-04T18:11:43.384Z,2.59
2023-03-04T18:14:13.079Z,2.58
2023-03-04T18:16:44.388Z,2.58
2023-03-04T18:19:13.806Z,2.56
2023-03-04T18:21:44.487Z,2.55
2023-03-04T18:24:12.921Z,2.56
2023-03-04T18:26:41.105Z,2.54
2023-03-04T18:29:10.865Z,2.53
2023-03-04T18:31:39.786Z,2.52
2023-03-04T18:34:08.052Z,2.52
2023-03-04T18:36:36.601Z,2.52
2023-03-04T18:39:07.586Z,2.52
2023-03-04T18:41:36.466Z,2.52
2023-03-04T18:44:06.054Z,2.52
2023-03-04T18:46:55.621Z,2.52
2023-03-04T18:49:24.269Z,2.51
2023-03-04T18:51:52.482Z,2.50
2023-03-04T18:54:21.229Z,2.49
2023-03-04T18:56:55.814Z,2.48
2023-03-04T18:59:31.503Z,2.46
2023-03-04T19:02:01.761Z,2.45
2023-03-04T19:04:30.111Z,2.43
2023-03-04T19:07:00.442Z,2.41
2023-03-04T19:09:28.891Z,2.40
2023-03-04T19:11:57.112Z,2.39
2023-03-04T19:14:25.678Z,2.37
2023-03-04T19:16:54.646Z,2.37
2023-03-04T19:19:23.010Z,2.36
2023-03-04T19:21:51.263Z,2.35
2023-03-04T19:24:19.992Z,2.35
2023-03-04T19:26:54.782Z,2.34
2023-03-04T19:29:23.157Z,2.33
2023-03-04T19:31:51.335Z,2.34
2023-03-04T19:34:19.717Z,2.34
2023-03-04T19:36:48.143Z,2.35
2023-03-04T19:39:18.645Z,2.34
2023-03-04T19:41:47.614Z,2.33
2023-03-04T19:44:17.447Z,2.32
2023-03-04T19:46:46.163Z,2.30
2023-03-04T19:49:14.473Z,2.28
2023-03-04T19:51:43.250Z,2.26
2023-03-04T19:54:11.567Z,2.25
2023-03-04T19:56:40.754Z,2.25
2023-03-04T19:59:09.250Z,2.24
2023-03-04T20:01:40.741Z,2.24
2023-03-04T20:04:13.862Z,2.24
2023-03-04T20:06:45.942Z,2.24
2023-03-04T20:09:14.528Z,2.25
2023-03-04T20:11:56.683Z,2.24
2023-03-04T20:14:28.202Z,2.24
2023-03-04T20:17:01.582Z,2.23
2023-03-04T20:19:30.432Z,2.23
2023-03-04T20:21:58.810Z,2.22
2023-03-04T20:24:27.555Z,2.21
2023-03-04T20:26:55.836Z,2.21
2023-03-04T20:29:26.926Z,2.20
2023-03-04T20:31:55.102Z,2.21
2023-03-04T20:34:25.606Z,2.21
2023-03-04T20:36:54.130Z,2.22
2023-03-04T20:39:29.182Z,2.23
2023-03-04T20:41:58.733Z,2.23
2023-03-04T20:44:31.650Z,2.24
2023-03-04T20:47:01.908Z,2.24
2023-03-04T20:49:30.580Z,2.24
2023-03-04T20:52:06.429Z,2.24
2023-03-04T20:54:36.086Z,2.24
2023-03-04T20:57:08.104Z,2.25
2023-03-04T20:59:38.394Z,2.28
2023-03-04T21:02:14.573Z,2.24
2023-03-04T21:04:44.060Z,2.12
2023-03-04T21:07:12.388Z,2.02
2023-03-04T21:09:44.841Z,1.93
2023-03-04T21:12:14.613Z,1.88
2023-03-04T21:14:45.471Z,1.84
2023-03-04T21:17:14.310Z,1.76
2023-03-04T21:19:43.614Z,1.69
2023-03-04T21:22:16.569Z,1.64
2023-03-04T21:24:52.438Z,1.58
2023-03-04T21:27:22.273Z,1.51
2023-03-04T21:29:50.640Z,1.46
2023-03-04T21:32:25.793Z,1.42
2023-03-04T21:34:54.987Z,1.39
2023-03-04T21:37:25.160Z,1.34
2023-03-04T21:39:55.075Z,1.32
2023-03-04T21:42:23.753Z,1.29
2023-03-04T21:44:57.387Z,1.26
2023-03-04T21:47:26.606Z,1.23
2023-03-04T21:49:54.846Z,1.18
2023-03-04T21:52:23.101Z,1.15
2023-03-04T21:54:51.319Z,1.11
2023-03-04T21:57:19.733Z,1.10
2023-03-04T21:59:48.489Z,1.08
2023-03-04T22:02:21.345Z,1.03
2023-03-04T22:04:50.205Z,0.96
2023-03-04T22:07:19.150Z,0.92
2023-03-04T22:09:47.936Z,0.90
2023-03-04T22:12:19.707Z,0.88
2023-03-04T22:14:48.217Z,0.85
2023-03-04T22:17:16.609Z,0.83
2023-03-04T22:19:45.170Z,0.81
2023-03-04T22:22:13.396Z,0.81
2023-03-04T22:24:42.693Z,0.82
2023-03-04T22:27:10.888Z,0.84
2023-03-04T22:29:42.612Z,0.84
2023-03-04T22:32:10.987Z,0.84
2023-03-04T22:34:40.529Z,0.84
2023-03-04T22:37:09.115Z,0.84
2023-03-04T22:39:37.314Z,0.84
2023-03-04T22:42:05.745Z,0.84
2023-03-04T22:44:34.678Z,0.84
2023-03-04T22:47:04.269Z,0.82
2023-03-04T22:49:33.473Z,0.81
2023-03-04T22:52:07.424Z,0.79
2023-03-04T22:54:35.600Z,0.77
2023-03-04T22:57:03.853Z,0.76
2023-03-04T22:59:32.174Z,0.77
2023-03-04T23:02:04.955Z,0.76
2023-03-04T23:04:33.630Z,0.74
2023-03-04T23:07:02.032Z,0.71
2023-03-04T23:09:30.680Z,0.70
2023-03-04T23:11:58.877Z,0.70
2023-03-04T23:14:27.275Z,0.70
2023-03-04T23:16:56.306Z,0.69
2023-03-04T23:19:26.051Z,0.66
2023-03-04T23:21:57.297Z,0.63
2023-03-04T23:24:26.832Z,0.58
2023-03-04T23:26:55.121Z,0.54
2023-03-04T23:29:23.328Z,0.49
2023-03-04T23:31:51.870Z,0.43
2023-03-04T23:34:26.232Z,0.38
2023-03-04T23:36:54.455Z,0.34
2023-03-04T23:39:22.835Z,0.31
2023-03-04T23:41:51.136Z,0.26
2023-03-04T23:44:19.638Z,0.20
2023-03-04T23:46:47.844Z,0.15
2023-03-04T23:49:18.027Z,0.12
2023-03-04T23:51:46.404Z,0.09
2023-03-04T23:54:14.800Z,0.04
2023-03-04T23:56:43.433Z,-0.02
2023-03-04T23:59:12.501Z,-0.08
